Time;durP1;ratioP1;P1;durP2;ratioP2;P2;SDS_P1;SDS_P2;PMS_P1;PMS_P2;Temp;Humidity;BMP_temperature;BMP_pressure;BME280_temperature;BME280_humidity;BME280_pressure;Samples;Min_cycle;Max_cycle;Signal;HPM_P1;HPM_P2
2023/01/16 00:01:32;;;;;;;9.07;3.20;;;3.50;29.60;;;;;;6031407;23;20444;-69
2023/01/16 00:03:59;;;;;;;8.77;2.70;;;3.50;29.70;;;;;;6033520;23;20507;-69
2023/01/16 00:06:26;;;;;;;8.03;2.50;;;3.50;29.80;;;;;;6030986;23;20431;-69
2023/01/16 00:08:52;;;;;;;6.80;2.60;;;3.40;29.90;;;;;;6033428;23;20451;-69
2023/01/16 00:11:21;;;;;;;7.40;2.20;;;3.40;29.80;;;;;;6032193;23;20420;-69
2023/01/16 00:13:47;;;;;;;5.20;0.93;;;3.40;29.80;;;;;;6033863;23;20420;-69
2023/01/16 00:16:14;;;;;;;5.03;1.00;;;3.30;30.00;;;;;;6034039;23;20423;-69
2023/01/16 00:18:41;;;;;;;4.10;1.07;;;3.30;30.30;;;;;;6033202;23;20439;-69
2023/01/16 00:21:08;;;;;;;7.80;2.00;;;3.30;30.40;;;;;;6033324;23;20416;-69
2023/01/16 00:23:36;;;;;;;13.80;4.97;;;3.20;30.40;;;;;;6035573;23;21078;-69
2023/01/16 00:26:05;;;;;;;10.50;3.70;;;3.30;30.50;;;;;;6036050;23;20447;-68
2023/01/16 00:28:34;;;;;;;10.93;4.03;;;3.30;30.50;;;;;;6033968;23;20478;-68
2023/01/16 00:31:00;;;;;;;8.10;2.50;;;3.30;30.30;;;;;;6033328;23;20440;-68
2023/01/16 00:33:27;;;;;;;8.77;2.33;;;3.30;30.20;;;;;;6035947;23;21028;-68
2023/01/16 00:35:54;;;;;;;6.90;2.13;;;3.30;30.30;;;;;;6035828;23;20420;-69
2023/01/16 00:38:21;;;;;;;5.97;1.83;;;3.30;30.20;;;;;;6035038;23;20427;-70
2023/01/16 00:40:47;;;;;;;7.50;2.20;;;3.30;30.30;;;;;;6034672;23;20423;-69
2023/01/16 00:43:14;;;;;;;7.97;1.70;;;3.20;30.50;;;;;;6035762;23;20420;-68
2023/01/16 00:45:42;;;;;;;12.07;3.00;;;3.20;30.60;;;;;;6036415;23;20427;-69
2023/01/16 00:48:10;;;;;;;7.50;2.30;;;3.20;30.80;;;;;;6036081;23;20538;-69
2023/01/16 00:50:36;;;;;;;6.70;2.37;;;3.20;30.90;;;;;;6034833;23;20450;-69
2023/01/16 00:53:03;;;;;;;13.47;4.40;;;3.10;31.00;;;;;;6035394;23;21129;-69
2023/01/16 00:55:30;;;;;;;10.57;3.53;;;3.10;31.10;;;;;;6034910;23;20933;-68
2023/01/16 00:57:57;;;;;;;12.97;3.13;;;3.10;31.10;;;;;;6035028;23;20427;-68
2023/01/16 01:00:25;;;;;;;9.23;3.00;;;3.10;31.00;;;;;;6034840;23;20752;-69
2023/01/16 01:02:53;;;;;;;9.10;2.33;;;3.10;31.00;;;;;;6034415;23;20427;-69
2023/01/16 01:05:20;;;;;;;17.27;2.53;;;3.10;31.00;;;;;;6035691;23;20423;-68
2023/01/16 01:07:46;;;;;;;5.77;1.30;;;3.10;30.70;;;;;;6031316;23;20534;-69
2023/01/16 01:10:13;;;;;;;9.10;3.90;;;3.10;30.90;;;;;;6034112;23;20463;-68
2023/01/16 01:12:40;;;;;;;5.67;1.40;;;3.10;31.00;;;;;;6033401;23;20428;-68
2023/01/16 01:15:08;;;;;;;4.23;1.10;;;3.10;31.00;;;;;;6035071;23;21053;-68
2023/01/16 01:17:34;;;;;;;10.00;2.90;;;3.00;30.90;;;;;;6032351;23;20416;-68
2023/01/16 01:20:02;;;;;;;6.33;1.80;;;3.00;31.00;;;;;;6034015;23;20934;-68
2023/01/16 01:22:29;;;;;;;9.67;1.97;;;3.00;31.10;;;;;;6033764;23;20420;-68
2023/01/16 01:24:56;;;;;;;8.60;2.13;;;3.00;31.10;;;;;;6034553;23;20420;-69
2023/01/16 01:27:23;;;;;;;9.30;3.00;;;3.00;31.00;;;;;;6035083;23;20444;-68
2023/01/16 01:29:49;;;;;;;11.00;2.83;;;3.00;30.90;;;;;;6033261;23;21182;-68
2023/01/16 01:32:19;;;;;;;5.80;1.40;;;2.90;31.10;;;;;;6033645;23;20436;-68
2023/01/16 01:34:45;;;;;;;7.40;2.10;;;2.90;31.10;;;;;;6034249;23;20918;-68
2023/01/16 01:37:14;;;;;;;7.90;2.47;;;2.90;31.20;;;;;;6034451;23;20427;-68
2023/01/16 01:39:40;;;;;;;7.60;2.53;;;2.90;31.30;;;;;;6034413;23;20504;-68
2023/01/16 01:44:56;;;;;;;4.37;1.30;;;2.80;31.30;;;;;;6035126;23;20436;-69
2023/01/16 01:47:28;;;;;;;6.33;1.50;;;2.80;31.20;;;;;;6035237;23;20455;-68
2023/01/16 01:49:58;;;;;;;6.07;1.40;;;2.80;31.30;;;;;;6034405;23;20467;-68
2023/01/16 01:52:27;;;;;;;5.13;1.20;;;2.80;31.30;;;;;;6032950;23;20424;-68
2023/01/16 01:55:00;;;;;;;7.23;1.40;;;2.80;31.20;;;;;;6035178;23;20420;-68
2023/01/16 01:57:31;;;;;;;3.60;0.73;;;2.80;31.10;;;;;;6033993;23;20401;-69
2023/01/16 02:00:02;;;;;;;4.63;0.90;;;2.80;31.20;;;;;;6033333;23;20440;-69
2023/01/16 02:02:34;;;;;;;4.60;1.27;;;2.80;31.10;;;;;;6034293;23;21146;-68
2023/01/16 02:05:04;;;;;;;4.63;1.60;;;2.80;31.30;;;;;;6035234;23;20742;-68
2023/01/16 02:07:32;;;;;;;4.47;1.20;;;2.80;31.20;;;;;;6035293;23;20822;-69
2023/01/16 02:10:10;;;;;;;7.37;1.33;;;2.80;31.20;;;;;;6049323;23;20455;-62
2023/01/16 02:12:37;;;;;;;5.77;1.67;;;2.70;31.50;;;;;;6062035;23;20786;-62
2023/01/16 02:15:05;;;;;;;4.90;1.53;;;2.70;31.60;;;;;;6063777;23;20423;-62
2023/01/16 02:20:26;;;;;;;8.00;2.07;;;2.70;31.80;;;;;;5986614;23;20922;-62
2023/01/16 02:23:24;;;;;;;9.90;1.77;;;2.60;31.70;;;;;;6033276;23;20609;-62
2023/01/16 02:26:21;;;;;;;7.33;1.73;;;2.60;31.70;;;;;;6034359;23;20749;-62
2023/01/16 02:29:18;;;;;;;8.43;1.60;;;2.60;31.60;;;;;;6034671;23;20478;-62
2023/01/16 02:31:52;;;;;;;6.57;1.80;;;2.60;31.70;;;;;;6031748;23;20444;-62
2023/01/16 02:34:44;;;;;;;6.17;1.70;;;2.60;31.80;;;;;;6035439;23;20411;-62
2023/01/16 02:37:21;;;;;;;6.57;1.90;;;2.60;32.00;;;;;;6034944;23;20748;-62
2023/01/16 02:39:59;;;;;;;9.93;1.97;;;2.50;32.20;;;;;;6034184;23;20444;-62
2023/01/16 02:42:31;;;;;;;5.63;1.70;;;2.50;32.40;;;;;;6033642;23;20412;-62
2023/01/16 02:45:03;;;;;;;7.60;1.73;;;2.50;32.40;;;;;;6033636;23;20467;-62
2023/01/16 02:47:40;;;;;;;9.13;2.60;;;2.50;32.30;;;;;;6034651;23;20404;-62
2023/01/16 02:50:12;;;;;;;7.10;1.47;;;2.50;32.60;;;;;;6033501;23;20447;-62
2023/01/16 02:52:41;;;;;;;7.30;1.70;;;2.50;32.70;;;;;;6043864;23;20440;-62
2023/01/16 02:55:16;;;;;;;5.00;1.40;;;2.50;32.70;;;;;;6042956;23;20424;-63
2023/01/16 02:57:47;;;;;;;5.40;1.77;;;2.50;32.70;;;;;;6034049;23;20400;-62
2023/01/16 03:00:19;;;;;;;5.83;2.03;;;2.50;32.70;;;;;;6032917;23;20443;-62
2023/01/16 03:02:47;;;;;;;6.53;1.90;;;2.40;32.90;;;;;;6042714;23;20416;-62
2023/01/16 03:05:14;;;;;;;12.13;3.67;;;2.40;33.00;;;;;;6033307;23;20424;-62
2023/01/16 03:08:18;;;;;;;7.30;2.20;;;2.40;33.00;;;;;;6042913;23;20431;-62
2023/01/16 03:11:08;;;;;;;7.03;1.97;;;2.40;33.20;;;;;;6030245;23;20458;-62
2023/01/16 03:13:50;;;;;;;12.60;2.20;;;2.40;33.30;;;;;;6029328;23;20463;-62
2023/01/16 03:16:28;;;;;;;5.70;1.53;;;2.30;33.40;;;;;;6034921;23;20759;-62
2023/01/16 03:19:06;;;;;;;11.30;1.80;;;2.30;33.70;;;;;;6034167;23;20487;-63
2023/01/16 03:21:42;;;;;;;10.13;2.40;;;2.30;34.00;;;;;;6032744;23;20747;-62
2023/01/16 03:24:18;;;;;;;6.23;1.70;;;2.20;34.10;;;;;;6032859;23;20404;-62
2023/01/16 03:26:48;;;;;;;5.30;1.53;;;2.20;34.30;;;;;;6034204;23;20400;-62
2023/01/16 03:29:24;;;;;;;5.20;1.23;;;2.20;34.30;;;;;;6033233;23;20452;-62
2023/01/16 03:31:56;;;;;;;4.80;1.40;;;2.20;34.40;;;;;;6032833;23;20447;-62
2023/01/16 03:34:32;;;;;;;4.50;1.43;;;2.20;34.30;;;;;;6034254;23;20415;-62
2023/01/16 03:37:04;;;;;;;6.00;1.50;;;2.20;34.30;;;;;;6033819;23;20743;-62
2023/01/16 03:39:36;;;;;;;7.00;2.20;;;2.20;34.30;;;;;;6031452;23;20436;-62
2023/01/16 03:42:06;;;;;;;9.50;2.43;;;2.20;34.30;;;;;;6033518;23;20743;-62
2023/01/16 03:44:36;;;;;;;7.13;1.60;;;2.20;34.40;;;;;;6032728;23;20413;-62
2023/01/16 03:47:06;;;;;;;6.50;1.80;;;2.20;34.30;;;;;;6032483;23;20431;-62
2023/01/16 03:49:39;;;;;;;4.77;1.40;;;2.20;34.40;;;;;;6033659;23;20452;-62
2023/01/16 03:52:10;;;;;;;3.90;1.50;;;2.20;34.50;;;;;;6034415;23;20411;-61
2023/01/16 03:54:43;;;;;;;6.63;2.07;;;2.20;34.60;;;;;;6034382;23;20731;-62
2023/01/16 03:57:14;;;;;;;7.43;1.40;;;2.10;34.90;;;;;;6033577;23;20524;-62
2023/01/16 03:59:44;;;;;;;5.10;1.40;;;2.10;35.00;;;;;;6033045;23;20442;-62
2023/01/16 04:02:15;;;;;;;5.93;1.87;;;2.10;35.20;;;;;;6030810;23;20441;-62
2023/01/16 04:04:49;;;;;;;5.97;2.00;;;2.00;35.30;;;;;;6033971;23;20404;-62
2023/01/16 04:07:25;;;;;;;9.73;1.80;;;2.00;35.20;;;;;;6031490;23;20874;-62
2023/01/16 04:09:56;;;;;;;7.10;1.57;;;2.00;35.30;;;;;;6033153;23;20454;-61
2023/01/16 04:12:26;;;;;;;5.80;1.83;;;2.00;35.20;;;;;;6032990;23;20407;-61
2023/01/16 04:14:57;;;;;;;5.67;1.73;;;2.00;35.20;;;;;;6033370;23;20420;-62
2023/01/16 04:17:24;;;;;;;5.50;1.53;;;2.00;35.10;;;;;;6033110;23;20899;-61
2023/01/16 04:19:52;;;;;;;6.53;2.07;;;2.00;35.10;;;;;;6032140;23;20447;-61
2023/01/16 04:22:21;;;;;;;7.43;1.83;;;2.00;35.20;;;;;;6033603;23;20427;-62
2023/01/16 04:24:49;;;;;;;6.70;2.00;;;2.00;35.10;;;;;;6033332;23;20420;-62
2023/01/16 04:27:16;;;;;;;4.63;1.67;;;2.00;35.10;;;;;;6032691;23;20420;-62
2023/01/16 04:29:42;;;;;;;5.60;1.50;;;2.00;35.10;;;;;;6032284;23;20459;-62
2023/01/16 04:32:09;;;;;;;8.40;2.13;;;2.00;35.10;;;;;;6030325;23;20770;-62
2023/01/16 04:34:36;;;;;;;11.07;2.70;;;2.00;35.10;;;;;;6033068;23;20435;-61
2023/01/16 04:37:04;;;;;;;5.50;1.33;;;2.00;35.00;;;;;;6030987;23;20424;-62
2023/01/16 04:39:31;;;;;;;5.20;1.57;;;2.00;35.00;;;;;;6033414;23;20826;-62
2023/01/16 04:41:58;;;;;;;5.13;1.80;;;2.00;35.00;;;;;;6033389;23;20431;-62
2023/01/16 04:44:25;;;;;;;5.93;2.60;;;1.90;35.20;;;;;;6033714;23;20483;-62
2023/01/16 04:46:53;;;;;;;7.50;2.37;;;1.90;35.30;;;;;;6034012;23;20427;-62
2023/01/16 04:49:20;;;;;;;5.17;2.67;;;1.90;35.40;;;;;;6032271;23;20484;-62
2023/01/16 04:51:47;;;;;;;5.80;2.20;;;1.90;35.40;;;;;;6033137;23;20424;-62
2023/01/16 04:54:18;;;;;;;11.27;4.33;;;1.90;35.30;;;;;;6031391;23;20421;-62
2023/01/16 04:56:45;;;;;;;6.77;2.73;;;1.90;35.30;;;;;;6043161;23;20427;-62
2023/01/16 04:59:13;;;;;;;5.50;1.97;;;1.90;35.10;;;;;;6031790;23;20446;-62
2023/01/16 05:01:39;;;;;;;8.90;2.93;;;1.90;34.90;;;;;;6032534;23;20440;-62
2023/01/16 05:04:08;;;;;;;4.90;1.80;;;1.90;35.00;;;;;;6032979;23;20763;-62
2023/01/16 05:06:35;;;;;;;7.10;1.93;;;1.90;35.00;;;;;;6033051;23;20423;-62
2023/01/16 05:09:03;;;;;;;4.53;1.70;;;1.90;34.80;;;;;;6028585;23;20452;-62
2023/01/16 05:11:32;;;;;;;5.70;1.93;;;1.90;34.80;;;;;;6056485;23;20899;-62
2023/01/16 05:13:59;;;;;;;5.77;1.87;;;1.90;34.60;;;;;;6062145;23;20497;-63
2023/01/16 05:16:27;;;;;;;5.20;1.70;;;1.90;34.50;;;;;;6062677;23;20415;-63
2023/01/16 05:18:53;;;;;;;5.10;1.93;;;1.90;34.10;;;;;;6062277;23;20415;-63
2023/01/16 05:21:20;;;;;;;7.13;2.73;;;1.90;34.10;;;;;;6033938;23;20427;-63
2023/01/16 05:23:47;;;;;;;5.43;1.90;;;1.90;33.80;;;;;;6035261;23;20526;-63
2023/01/16 05:26:13;;;;;;;4.83;1.53;;;1.90;33.50;;;;;;6035502;23;20419;-63
2023/01/16 05:28:41;;;;;;;5.47;1.93;;;1.90;33.20;;;;;;6034784;23;20515;-63
2023/01/16 05:31:08;;;;;;;8.60;1.53;;;2.00;33.00;;;;;;6034280;23;20954;-63
2023/01/16 05:33:35;;;;;;;6.17;1.63;;;2.00;32.70;;;;;;6035760;23;20420;-64
2023/01/16 05:36:02;;;;;;;3.83;1.30;;;2.00;32.50;;;;;;6035460;23;20451;-63
2023/01/16 05:38:28;;;;;;;6.13;1.60;;;2.00;32.40;;;;;;6035517;23;20416;-63
2023/01/16 05:40:55;;;;;;;4.13;1.13;;;2.00;32.20;;;;;;6034441;23;20444;-63
2023/01/16 05:43:22;;;;;;;6.67;1.70;;;2.00;32.00;;;;;;6034436;23;20427;-63
2023/01/16 05:45:50;;;;;;;4.43;1.20;;;2.00;32.20;;;;;;6034049;23;20421;-63
2023/01/16 05:48:17;;;;;;;5.97;1.30;;;2.00;32.40;;;;;;6044011;23;20881;-63
2023/01/16 05:50:44;;;;;;;4.47;1.40;;;2.00;32.10;;;;;;6034268;23;20452;-63
2023/01/16 05:53:11;;;;;;;4.23;1.30;;;2.00;32.00;;;;;;6034317;23;20421;-63
2023/01/16 05:55:42;;;;;;;4.50;1.50;;;2.00;31.60;;;;;;6034891;23;20459;-63
2023/01/16 05:58:10;;;;;;;7.17;2.43;;;2.00;31.50;;;;;;6035750;23;20405;-62
2023/01/16 06:00:37;;;;;;;5.50;1.63;;;2.00;31.30;;;;;;6033086;23;20440;-63
2023/01/16 06:03:05;;;;;;;7.07;2.00;;;2.00;31.40;;;;;;6035156;23;20420;-63
2023/01/16 06:05:32;;;;;;;6.67;1.67;;;2.00;31.20;;;;;;6035143;23;20427;-63
2023/01/16 06:07:59;;;;;;;7.83;2.10;;;2.10;31.10;;;;;;6035719;23;20427;-62
2023/01/16 06:10:26;;;;;;;6.80;3.37;;;2.10;31.00;;;;;;6032733;23;20448;-63
2023/01/16 06:12:53;;;;;;;7.30;2.03;;;2.10;30.90;;;;;;6033807;23;20420;-63
2023/01/16 06:15:20;;;;;;;5.63;2.23;;;2.10;30.80;;;;;;6034004;23;20427;-63
2023/01/16 06:17:47;;;;;;;10.63;2.20;;;2.10;30.70;;;;;;6034232;23;20424;-63
2023/01/16 06:20:16;;;;;;;6.90;2.60;;;2.10;30.70;;;;;;6033921;23;21173;-63
2023/01/16 06:22:42;;;;;;;7.40;2.17;;;2.10;30.70;;;;;;6030338;23;20420;-63
2023/01/16 06:25:09;;;;;;;7.13;2.10;;;2.10;30.90;;;;;;6032713;23;20427;-63
2023/01/16 06:27:36;;;;;;;8.07;2.50;;;2.10;30.70;;;;;;6033712;23;20420;-64
2023/01/16 06:30:03;;;;;;;8.10;2.97;;;2.10;30.50;;;;;;6033483;23;21014;-63
2023/01/16 06:32:30;;;;;;;5.53;1.70;;;2.10;30.60;;;;;;6032177;23;20492;-63
2023/01/16 06:34:56;;;;;;;7.07;2.20;;;2.10;30.30;;;;;;6034820;23;20431;-63
2023/01/16 06:37:24;;;;;;;8.63;3.20;;;2.10;30.40;;;;;;6034322;23;20487;-64
2023/01/16 06:39:51;;;;;;;7.50;2.97;;;2.10;30.30;;;;;;6030120;23;20448;-64
2023/01/16 06:42:19;;;;;;;10.70;3.77;;;2.10;30.20;;;;;;6032850;23;20459;-63
2023/01/16 06:44:46;;;;;;;10.47;3.37;;;2.10;30.10;;;;;;6033256;23;20430;-63
2023/01/16 06:47:14;;;;;;;6.70;2.80;;;2.10;30.10;;;;;;6032820;23;20431;-64
2023/01/16 06:49:41;;;;;;;8.10;2.50;;;2.10;30.10;;;;;;6035119;23;20448;-63
2023/01/16 06:52:08;;;;;;;8.20;1.90;;;2.10;30.00;;;;;;6031988;23;20499;-63
2023/01/16 06:54:36;;;;;;;9.03;2.13;;;2.10;29.90;;;;;;6032495;23;20431;-63
2023/01/16 06:57:03;;;;;;;6.13;1.83;;;2.10;29.70;;;;;;6034673;23;20427;-64
2023/01/16 06:59:29;;;;;;;9.83;2.17;;;2.10;29.70;;;;;;6032699;23;20436;-64
2023/01/16 07:01:56;;;;;;;8.73;2.13;;;2.10;29.80;;;;;;6034551;23;20495;-64
2023/01/16 07:04:23;;;;;;;6.23;1.90;;;2.10;29.70;;;;;;6033648;23;20443;-64
2023/01/16 07:06:50;;;;;;;6.93;2.10;;;2.10;29.70;;;;;;6032971;23;20420;-65
2023/01/16 07:09:17;;;;;;;9.80;2.83;;;2.10;29.60;;;;;;6034787;23;20455;-65
2023/01/16 07:11:47;;;;;;;7.10;3.10;;;2.10;29.40;;;;;;6033830;23;20946;-64
2023/01/16 07:22:38;;;;;;;14.10;5.77;;;2.20;28.90;;;;;;6033559;23;20728;-64
2023/01/16 07:25:08;;;;;;;13.70;6.20;;;2.30;27.70;;;;;;6034587;23;20404;-64
2023/01/16 07:27:36;;;;;;;6.80;2.40;;;2.30;27.60;;;;;;6034486;23;20431;-64
2023/01/16 07:30:03;;;;;;;3.80;1.00;;;2.40;26.90;;;;;;6034606;23;20448;-64
2023/01/16 07:32:30;;;;;;;4.40;1.17;;;2.50;27.00;;;;;;6033362;23;20444;-64
2023/01/16 07:34:57;;;;;;;3.70;0.73;;;2.60;27.10;;;;;;6034053;23;20431;-64
2023/01/16 07:37:23;;;;;;;5.33;1.60;;;2.70;27.40;;;;;;6034302;23;20420;-64
2023/01/16 07:39:50;;;;;;;4.40;1.00;;;2.70;27.20;;;;;;6032189;23;20436;-64
2023/01/16 07:42:17;;;;;;;5.53;2.10;;;2.80;27.00;;;;;;6034045;23;20427;-64
2023/01/16 07:44:45;;;;;;;7.20;1.90;;;2.90;26.80;;;;;;6031664;23;20757;-64
2023/01/16 07:47:12;;;;;;;6.70;2.80;;;3.10;26.40;;;;;;6034533;23;20421;-64
2023/01/16 07:49:39;;;;;;;9.73;3.90;;;3.20;26.00;;;;;;6034518;23;20452;-64
2023/01/16 07:52:06;;;;;;;10.97;3.43;;;3.40;25.80;;;;;;6034809;23;20446;-64
2023/01/16 07:54:35;;;;;;;10.70;4.00;;;3.80;24.50;;;;;;6033527;23;20420;-64
2023/01/16 07:57:02;;;;;;;9.73;3.90;;;4.30;24.30;;;;;;6034507;23;20417;-64
2023/01/16 07:59:28;;;;;;;11.17;3.30;;;5.00;21.90;;;;;;6031922;23;20436;-64
2023/01/16 08:01:57;;;;;;;7.53;2.43;;;5.70;20.00;;;;;;6033195;23;20780;-64
2023/01/16 08:04:23;;;;;;;4.33;1.20;;;6.10;19.20;;;;;;6031861;23;20431;-64
2023/01/16 08:06:50;;;;;;;4.80;0.77;;;6.70;18.70;;;;;;6033610;23;20754;-64
2023/01/16 08:09:17;;;;;;;4.10;0.97;;;7.30;17.20;;;;;;6032085;23;20988;-65
2023/01/16 08:11:46;;;;;;;6.57;1.00;;;7.40;16.10;;;;;;6033145;23;20404;-64
2023/01/16 08:14:14;;;;;;;3.70;0.90;;;7.60;15.40;;;;;;6034337;23;20424;-64
2023/01/16 08:16:41;;;;;;;4.97;1.40;;;8.50;14.30;;;;;;6032933;23;20443;-64
2023/01/16 08:19:09;;;;;;;6.20;1.40;;;9.30;12.30;;;;;;6033434;23;20440;-64
2023/01/16 08:21:35;;;;;;;4.70;1.53;;;9.90;10.90;;;;;;6033680;23;20443;-64
2023/01/16 08:24:02;;;;;;;7.07;2.10;;;10.40;9.60;;;;;;6034637;23;20427;-64
2023/01/16 08:26:29;;;;;;;7.40;2.33;;;10.70;9.20;;;;;;6034690;23;20427;-65
2023/01/16 08:28:56;;;;;;;7.23;2.20;;;10.80;8.90;;;;;;6034228;23;20421;-64
2023/01/16 08:31:23;;;;;;;7.33;1.97;;;11.20;8.10;;;;;;6032104;23;20440;-64
2023/01/16 08:33:50;;;;;;;4.80;1.63;;;11.60;7.00;;;;;;6033734;23;20420;-64
2023/01/16 08:36:20;;;;;;;4.30;1.20;;;11.80;6.90;;;;;;6033249;23;20933;-65
2023/01/16 08:38:47;;;;;;;4.83;1.00;;;11.60;6.00;;;;;;6034585;23;20415;-65
2023/01/16 08:52:11;;;;;;;3.80;0.97;;;9.50;8.10;;;;;;6034121;23;20452;-64
2023/01/16 08:54:38;;;;;;;4.27;1.00;;;9.10;8.90;;;;;;6035335;23;20424;-64
2023/01/16 08:57:05;;;;;;;3.93;0.90;;;8.80;9.80;;;;;;6035820;23;20420;-64
2023/01/16 08:59:33;;;;;;;5.13;1.93;;;8.70;10.70;;;;;;6036464;23;20467;-64
2023/01/16 09:02:01;;;;;;;4.07;1.03;;;8.60;10.50;;;;;;6035282;23;20440;-64
2023/01/16 09:04:27;;;;;;;6.63;1.07;;;8.50;10.60;;;;;;6035781;23;20427;-64
2023/01/16 09:06:54;;;;;;;4.30;1.10;;;8.40;10.80;;;;;;6035163;23;20420;-64
2023/01/16 09:09:22;;;;;;;3.83;1.00;;;8.40;10.90;;;;;;6035134;23;20452;-64
2023/01/16 09:14:39;;;;;;;5.23;1.70;;;8.30;11.20;;;;;;6033330;23;20452;-64
2023/01/16 09:17:06;;;;;;;4.37;1.70;;;8.20;11.60;;;;;;6036208;23;20423;-64
2023/01/16 09:19:34;;;;;;;3.80;1.10;;;8.20;11.80;;;;;;6034792;23;20472;-64
2023/01/16 09:22:01;;;;;;;4.63;1.00;;;8.30;11.80;;;;;;6035758;23;20426;-64
2023/01/16 09:24:29;;;;;;;4.47;0.90;;;8.20;11.80;;;;;;6034940;23;20431;-64
2023/01/16 09:26:56;;;;;;;4.50;1.10;;;8.10;11.00;;;;;;6036266;23;20424;-64
2023/01/16 09:29:23;;;;;;;7.27;2.23;;;7.90;11.60;;;;;;6035191;23;20444;-64
2023/01/16 09:31:49;;;;;;;4.20;1.00;;;7.70;11.60;;;;;;6034795;23;20436;-64
2023/01/16 09:34:16;;;;;;;4.47;1.17;;;7.50;12.20;;;;;;6035644;23;20427;-64
2023/01/16 09:36:43;;;;;;;4.63;1.10;;;7.30;12.10;;;;;;6035759;23;20427;-64
2023/01/16 09:39:10;;;;;;;4.27;1.07;;;7.10;12.90;;;;;;6035894;23;20446;-64
2023/01/16 09:44:32;;;;;;;5.97;0.80;;;7.00;14.10;;;;;;6034379;23;21063;-64
2023/01/16 09:47:00;;;;;;;4.73;1.10;;;6.90;14.50;;;;;;6034844;23;20760;-64
2023/01/16 09:49:32;;;;;;;5.30;1.60;;;6.90;14.80;;;;;;6034761;23;20447;-64
2023/01/16 10:00:29;;;;;;;4.30;1.60;;;8.70;14.40;;;;;;6042441;23;20427;-64
2023/01/16 10:02:56;;;;;;;4.83;1.67;;;9.10;13.30;;;;;;6035164;23;20447;-64
2023/01/16 10:05:28;;;;;;;5.20;2.00;;;9.30;12.90;;;;;;6035703;23;20797;-63
2023/01/16 10:08:01;;;;;;;15.03;8.80;;;9.30;12.10;;;;;;6034997;23;20404;-64
2023/01/16 10:10:39;;;;;;;12.50;6.43;;;9.20;11.90;;;;;;6033940;23;20448;-64
2023/01/16 10:13:21;;;;;;;5.67;2.57;;;9.10;11.90;;;;;;6034154;23;20435;-64
2023/01/16 10:15:59;;;;;;;6.33;2.37;;;8.90;11.90;;;;;;6035256;23;20414;-64
2023/01/16 10:18:34;;;;;;;5.13;1.70;;;8.70;12.10;;;;;;6035667;23;20404;-64
2023/01/16 10:21:21;;;;;;;4.13;1.23;;;8.50;12.80;;;;;;6034631;23;20443;-64
2023/01/16 10:23:53;;;;;;;8.10;1.70;;;8.30;13.60;;;;;;6035450;23;20427;-64
2023/01/16 10:26:27;;;;;;;6.17;2.93;;;8.10;14.30;;;;;;6035136;23;20405;-64
2023/01/16 10:29:04;;;;;;;5.40;2.23;;;7.90;15.10;;;;;;6035235;23;20412;-64
2023/01/16 10:31:37;;;;;;;7.97;2.73;;;7.90;15.60;;;;;;6030535;23;20444;-64
2023/01/16 10:34:10;;;;;;;8.70;2.93;;;7.70;15.80;;;;;;6034466;23;20412;-64
2023/01/16 10:36:44;;;;;;;9.17;4.03;;;7.60;16.10;;;;;;6033860;23;20431;-64
2023/01/16 10:39:13;;;;;;;8.90;3.33;;;7.40;16.40;;;;;;6034027;23;20867;-64
2023/01/16 10:50:05;;;;;;;7.83;2.17;;;7.00;18.10;;;;;;6035216;23;20644;-64
2023/01/16 10:52:33;;;;;;;5.77;2.20;;;6.90;18.40;;;;;;6033439;23;20424;-64
2023/01/16 10:55:01;;;;;;;4.90;2.10;;;6.80;18.60;;;;;;6034250;23;20425;-65
2023/01/16 10:57:29;;;;;;;5.40;2.30;;;6.80;18.80;;;;;;6034121;23;21088;-64
2023/01/16 11:00:02;;;;;;;6.57;2.23;;;6.80;18.90;;;;;;6035016;23;20440;-64
2023/01/16 11:02:33;;;;;;;10.67;3.10;;;6.80;18.90;;;;;;6032639;23;20444;-64
2023/01/16 11:05:01;;;;;;;6.10;2.60;;;6.80;19.00;;;;;;6034669;23;20420;-64
2023/01/16 11:07:30;;;;;;;5.73;1.97;;;6.90;18.80;;;;;;6048196;23;20451;-67
2023/01/16 11:09:57;;;;;;;5.63;2.13;;;6.90;18.80;;;;;;6061322;23;20426;-67
2023/01/16 11:18:29;;;;;;;7.20;2.67;;;7.00;19.00;;;;;;6033353;23;20767;-67
2023/01/16 11:20:58;;;;;;;5.40;2.27;;;7.00;18.90;;;;;;6045392;23;20454;-64
2023/01/16 11:23:26;;;;;;;5.30;1.70;;;7.10;18.40;;;;;;6061667;23;20805;-62
2023/01/16 11:25:57;;;;;;;7.40;2.80;;;7.10;18.60;;;;;;6063337;23;20428;-61
2023/01/16 11:28:27;;;;;;;7.30;3.10;;;7.00;18.70;;;;;;6063351;23;20408;-62
2023/01/16 11:30:58;;;;;;;9.27;3.70;;;7.00;18.70;;;;;;6047910;23;20444;-61
2023/01/16 11:33:28;;;;;;;7.43;3.60;;;6.90;18.80;;;;;;6034797;23;20512;-61
2023/01/16 11:35:58;;;;;;;8.37;3.47;;;6.80;19.00;;;;;;6033703;23;20914;-61
2023/01/16 11:38:26;;;;;;;6.43;3.30;;;6.80;19.10;;;;;;6034540;23;20427;-61
2023/01/16 11:40:57;;;;;;;6.77;3.07;;;6.80;19.20;;;;;;6033699;23;20440;-61
2023/01/16 11:46:31;;;;;;;8.57;3.30;;;6.70;19.40;;;;;;6034576;23;20424;-62
2023/01/16 11:49:00;;;;;;;7.33;3.93;;;6.60;19.40;;;;;;6035198;23;20405;-62
2023/01/16 11:51:30;;;;;;;7.93;4.10;;;6.50;19.40;;;;;;6034318;23;20456;-62
2023/01/16 11:53:58;;;;;;;7.80;4.17;;;6.50;19.70;;;;;;6034336;23;20427;-62
2023/01/16 11:56:41;;;;;;;11.80;5.57;;;6.40;20.00;;;;;;6033462;23;21014;-62
2023/01/16 11:59:29;;;;;;;7.53;4.07;;;6.40;20.50;;;;;;6034760;23;20732;-62
2023/01/16 12:02:19;;;;;;;8.77;4.70;;;6.30;20.60;;;;;;6034199;23;20444;-60
2023/01/16 12:07:46;;;;;;;8.97;4.90;;;6.30;20.70;;;;;;6034266;23;20399;-61
2023/01/16 12:10:28;;;;;;;9.73;5.00;;;6.20;20.70;;;;;;6031337;23;20450;-63
2023/01/16 12:16:07;;;;;;;12.60;5.00;;;6.10;21.00;;;;;;6032496;23;20391;-60
2023/01/16 12:18:42;;;;;;;10.27;5.40;;;6.10;20.70;;;;;;6031690;23;20415;-61
2023/01/16 12:21:22;;;;;;;8.10;4.53;;;6.00;20.70;;;;;;6026185;23;20444;-61
2023/01/16 12:24:16;;;;;;;10.10;5.10;;;6.00;20.90;;;;;;6030987;23;20419;-60
2023/01/16 12:26:52;;;;;;;14.40;8.97;;;6.00;20.90;;;;;;6031132;23;20427;-62
2023/01/16 12:29:27;;;;;;;7.93;4.80;;;5.90;20.90;;;;;;6031681;23;20439;-63
2023/01/16 12:32:18;;;;;;;8.77;4.70;;;5.80;20.90;;;;;;6032773;23;20443;-61
2023/01/16 12:35:02;;;;;;;16.70;10.73;;;5.80;21.00;;;;;;6033441;23;20412;-60
2023/01/16 12:37:50;;;;;;;8.97;4.63;;;5.80;20.90;;;;;;6033017;23;20731;-60
2023/01/16 12:40:30;;;;;;;10.73;4.63;;;5.80;20.60;;;;;;6031401;23;20475;-62
2023/01/16 12:43:22;;;;;;;11.63;6.40;;;5.70;20.30;;;;;;6032792;23;20408;-59
2023/01/16 12:45:53;;;;;;;9.93;5.10;;;5.70;20.50;;;;;;6030218;23;20408;-60
2023/01/16 12:48:38;;;;;;;10.47;5.00;;;5.70;20.70;;;;;;6032948;23;20408;-62
2023/01/16 12:51:20;;;;;;;15.60;6.70;;;5.70;20.80;;;;;;6033172;23;20452;-62
2023/01/16 12:54:22;;;;;;;20.00;10.33;;;5.70;20.80;;;;;;6030730;23;20925;-63
2023/01/16 12:57:15;;;;;;;19.00;8.40;;;5.70;20.50;;;;;;6032799;23;20412;-64
2023/01/16 12:59:48;;;;;;;8.57;5.00;;;5.70;20.30;;;;;;6030426;23;20431;-64
2023/01/16 13:02:24;;;;;;;12.30;3.80;;;5.70;20.00;;;;;;6025591;23;20440;-65
2023/01/16 13:04:56;;;;;;;6.60;3.13;;;5.70;20.50;;;;;;6033589;23;20408;-62
2023/01/16 13:07:29;;;;;;;9.50;3.87;;;5.60;21.00;;;;;;6032448;23;20411;-63
2023/01/16 13:15:27;;;;;;;15.43;3.90;;;5.30;22.10;;;;;;6013369;23;20416;-65
2023/01/16 13:18:03;;;;;;;12.50;5.43;;;5.20;22.40;;;;;;6033061;23;20420;-64
2023/01/16 13:20:32;;;;;;;32.77;16.57;;;5.20;22.50;;;;;;6032183;23;20894;-63
2023/01/16 13:23:05;;;;;;;11.50;6.00;;;5.20;22.50;;;;;;6033489;23;20428;-63
2023/01/16 13:25:35;;;;;;;7.50;2.57;;;5.20;22.70;;;;;;6028198;23;20415;-62
2023/01/16 13:28:08;;;;;;;7.67;3.00;;;5.20;22.70;;;;;;6033531;23;20415;-64
2023/01/16 13:30:35;;;;;;;11.13;3.67;;;5.20;22.70;;;;;;6030745;23;20452;-62
2023/01/16 13:33:07;;;;;;;8.70;4.53;;;5.20;22.60;;;;;;6035027;23;20935;-63
2023/01/16 13:35:44;;;;;;;6.27;2.50;;;5.20;22.60;;;;;;6034329;23;20415;-61
2023/01/16 13:38:40;;;;;;;6.63;2.20;;;5.30;22.70;;;;;;6030744;23;20404;-63
2023/01/16 13:41:24;;;;;;;5.70;1.73;;;5.30;22.20;;;;;;6029553;23;20447;-62
2023/01/16 13:46:41;;;;;;;7.30;2.17;;;5.30;21.60;;;;;;6034167;23;20391;-63
2023/01/16 13:49:15;;;;;;;9.43;2.50;;;5.30;21.70;;;;;;6031985;23;20431;-61
2023/01/16 13:51:43;;;;;;;11.90;2.40;;;5.30;21.10;;;;;;6034070;23;20451;-63
2023/01/16 13:54:17;;;;;;;7.30;2.57;;;5.30;20.80;;;;;;6035597;23;20424;-63
2023/01/16 13:56:44;;;;;;;4.93;2.60;;;5.20;21.20;;;;;;6035569;23;20416;-63
2023/01/16 13:59:36;;;;;;;8.57;2.57;;;5.20;20.90;;;;;;6034540;23;21013;-62
2023/01/16 14:02:23;;;;;;;8.10;1.80;;;5.20;21.00;;;;;;6032701;23;21021;-63
2023/01/16 14:05:26;;;;;;;7.40;2.20;;;5.20;20.60;;;;;;6034890;23;20479;-66
2023/01/16 14:11:25;;;;;;;5.43;2.13;;;5.20;21.00;;;;;;6033318;23;20447;-66
2023/01/16 14:17:22;;;;;;;6.90;2.70;;;5.20;20.80;;;;;;6034044;23;20404;-66
2023/01/16 14:19:59;;;;;;;6.57;2.37;;;5.10;20.90;;;;;;6029577;23;20431;-66
2023/01/16 14:25:21;;;;;;;6.13;2.50;;;5.00;20.10;;;;;;6032388;23;20392;-65
2023/01/16 14:27:57;;;;;;;5.53;2.30;;;5.00;20.80;;;;;;6033858;23;20404;-65
2023/01/16 14:30:26;;;;;;;6.27;2.20;;;4.90;21.10;;;;;;6032844;23;20798;-66
2023/01/16 14:32:56;;;;;;;4.93;1.80;;;4.90;20.40;;;;;;6031088;23;20491;-64
2023/01/16 14:35:26;;;;;;;6.43;1.90;;;4.90;20.70;;;;;;6032275;23;20424;-66